Time;durP1;ratioP1;P1;durP2;ratioP2;P2;SDS_P1;SDS_P2;PMS_P1;PMS_P2;Temp;Humidity;BMP_temperature;BMP_pressure;BME280_temperature;BME280_humidity;BME280_pressure;Samples;Min_cycle;Max_cycle;Signal;HPM_P1;HPM_P2
2022/11/21 00:01:16;;;;;;;;;;;;;;;3.93;84.12;98999.16;5073182;28;19934;-71
2022/11/21 00:03:45;;;;;;;;;;;;;;;3.91;84.33;98995.75;5074385;28;19931;-71
2022/11/21 00:06:13;;;;;;;;;;;;;;;3.91;84.23;98984.84;5072517;28;20405;-71
2022/11/21 00:08:42;;;;;;;;;;;;;;;3.85;84.34;98980.53;5073976;28;20361;-71
2022/11/21 00:11:10;;;;;;;;;;;;;;;3.85;84.03;98979.69;5073656;28;19928;-71
2022/11/21 00:13:39;;;;;;;;;;;;;;;3.85;84.37;98978.00;5073659;28;19932;-71
2022/11/21 00:16:10;;;;;;;;;;;;;;;3.82;84.63;98980.47;5073976;28;19931;-71
2022/11/21 00:18:40;;;;;;;;;;;;;;;3.80;84.94;98972.03;5073886;28;20282;-71
2022/11/21 00:21:10;;;;;;;;;;;;;;;3.74;84.44;98986.25;5073694;28;19924;-72
2022/11/21 00:23:39;;;;;;;;;;;;;;;3.71;84.70;98992.09;5073642;28;19974;-71
2022/11/21 00:26:08;;;;;;;;;;;;;;;3.70;85.03;99000.47;5073574;28;19967;-72
2022/11/21 00:28:36;;;;;;;;;;;;;;;3.70;85.00;99000.47;5073687;28;20339;-71
2022/11/21 00:31:05;;;;;;;;;;;;;;;3.69;85.54;98998.81;5073457;28;19930;-71
2022/11/21 00:33:34;;;;;;;;;;;;;;;3.71;85.07;98991.25;5073406;28;19924;-71
2022/11/21 00:36:08;;;;;;;;;;;;;;;3.70;85.26;98987.88;5073424;28;20403;-71
2022/11/21 00:38:36;;;;;;;;;;;;;;;3.66;84.99;98978.56;5074212;28;19947;-72
2022/11/21 00:41:05;;;;;;;;;;;;;;;3.68;85.26;98979.44;5077202;28;19924;-71
2022/11/21 00:43:33;;;;;;;;;;;;;;;3.65;85.40;98966.75;5077142;28;19928;-70
2022/11/21 00:46:02;;;;;;;;;;;;;;;3.63;85.69;98963.38;5077471;28;19931;-70
2022/11/21 00:48:31;;;;;;;;;;;;;;;3.65;85.94;98956.66;5076937;28;19924;-70
2022/11/21 00:51:00;;;;;;;;;;;;;;;3.69;85.68;98953.38;5077046;28;19968;-69
2022/11/21 00:53:30;;;;;;;;;;;;;;;3.71;86.22;98941.66;5077333;28;19925;-70
2022/11/21 00:55:59;;;;;;;;;;;;;;;3.73;86.08;98945.03;5076944;28;20285;-70
2022/11/21 00:58:28;;;;;;;;;;;;;;;3.74;86.00;98929.03;5077158;28;19924;-70
2022/11/21 01:01:03;;;;;;;;;;;;;;;3.74;85.78;98926.53;5077157;28;19946;-70
2022/11/21 01:03:32;;;;;;;;;;;;;;;3.73;86.04;98932.41;5076851;28;19924;-71
2022/11/21 01:06:02;;;;;;;;;;;;;;;3.76;86.08;98936.66;5076815;28;19928;-71
2022/11/21 01:08:32;;;;;;;;;;;;;;;3.74;86.44;98931.56;5076788;28;19924;-72
2022/11/21 01:11:02;;;;;;;;;;;;;;;3.73;86.14;98924.84;5076717;28;19970;-72
2022/11/21 01:13:31;;;;;;;;;;;;;;;3.69;86.69;98927.31;5076691;28;19925;-72
2022/11/21 01:16:03;;;;;;;;;;;;;;;3.70;86.65;98937.41;5076919;28;20014;-71
2022/11/21 01:18:31;;;;;;;;;;;;;;;3.73;86.40;98940.00;5076577;28;19956;-72
2022/11/21 01:21:00;;;;;;;;;;;;;;;3.80;86.52;98941.75;5076475;28;19931;-71
2022/11/21 01:23:28;;;;;;;;;;;;;;;3.83;86.46;98946.88;5076763;28;19924;-71
2022/11/21 01:26:02;;;;;;;;;;;;;;;3.86;86.75;98941.00;5076628;28;20414;-72
2022/11/21 01:28:31;;;;;;;;;;;;;;;3.88;87.02;98942.72;5076341;28;19931;-71
2022/11/21 01:31:03;;;;;;;;;;;;;;;3.91;86.99;98939.41;5076273;28;19931;-72
2022/11/21 01:33:32;;;;;;;;;;;;;;;3.94;87.28;98937.75;5076579;28;19924;-72
2022/11/21 01:36:06;;;;;;;;;;;;;;;3.97;86.85;98942.00;5076230;28;19931;-71
2022/11/21 01:38:35;;;;;;;;;;;;;;;3.99;87.20;98938.66;5076064;28;19936;-71
2022/11/21 01:41:04;;;;;;;;;;;;;;;3.99;86.83;98938.66;5076053;28;19925;-71
2022/11/21 01:43:33;;;;;;;;;;;;;;;4.00;87.24;98935.31;5076092;28;19925;-71
2022/11/21 01:46:05;;;;;;;;;;;;;;;4.04;87.02;98938.72;5076595;28;20297;-72
2022/11/21 01:48:36;;;;;;;;;;;;;;;4.05;87.15;98937.91;5076284;28;19974;-71
2022/11/21 01:51:08;;;;;;;;;;;;;;;4.06;87.27;98937.91;5075180;28;20340;-71
2022/11/21 01:53:38;;;;;;;;;;;;;;;4.07;87.24;98942.16;5076555;28;20282;-71
2022/11/21 01:56:09;;;;;;;;;;;;;;;4.10;87.38;98943.00;5075737;28;19931;-71
2022/11/21 01:58:38;;;;;;;;;;;;;;;4.10;86.94;98935.44;5076128;28;19931;-71
2022/11/21 02:01:07;;;;;;;;;;;;;;;4.08;87.32;98928.69;5075717;28;19932;-71
2022/11/21 02:03:40;;;;;;;;;;;;;;;4.06;86.85;98925.28;5075715;28;19925;-71
2022/11/21 02:06:09;;;;;;;;;;;;;;;4.05;86.99;98913.47;5075966;28;19924;-71
2022/11/21 02:08:38;;;;;;;;;;;;;;;4.05;86.96;98903.38;5076087;28;20356;-71
2022/11/21 02:11:11;;;;;;;;;;;;;;;4.04;86.87;98891.63;5075715;28;20355;-71
2022/11/21 02:13:40;;;;;;;;;;;;;;;4.05;87.26;98902.56;5075504;28;20444;-71
2022/11/21 02:16:09;;;;;;;;;;;;;;;4.06;87.28;98904.25;5075446;28;20367;-71
2022/11/21 02:18:37;;;;;;;;;;;;;;;4.06;87.04;98905.09;5075701;28;19924;-71
2022/11/21 02:21:10;;;;;;;;;;;;;;;4.07;87.12;98899.22;5075806;28;19928;-71
2022/11/21 02:23:41;;;;;;;;;;;;;;;4.11;87.03;98899.25;5075358;28;19931;-71
2022/11/21 02:26:12;;;;;;;;;;;;;;;4.14;86.69;98901.81;5075623;28;20035;-71
2022/11/21 02:28:41;;;;;;;;;;;;;;;4.15;87.35;98895.94;5075129;28;19967;-71
2022/11/21 02:31:09;;;;;;;;;;;;;;;4.19;86.93;98902.72;5075334;28;20367;-71
2022/11/21 02:33:37;;;;;;;;;;;;;;;4.19;87.10;98905.25;5075428;28;19924;-71
2022/11/21 02:36:20;;;;;;;;;;;;;;;4.20;86.90;98902.72;5074830;28;20424;-71
2022/11/21 02:38:49;;;;;;;;;;;;;;;4.22;86.82;98900.25;5074877;28;20382;-71
2022/11/21 02:41:25;;;;;;;;;;;;;;;4.22;87.13;98892.66;5074879;28;19924;-71
2022/11/21 02:43:57;;;;;;;;;;;;;;;4.22;86.91;98883.41;5075110;28;19975;-72
2022/11/21 02:46:26;;;;;;;;;;;;;;;4.20;86.83;98880.00;5074907;28;19960;-72
2022/11/21 02:48:57;;;;;;;;;;;;;;;4.19;86.89;98880.00;5074720;28;19928;-72
2022/11/21 02:51:25;;;;;;;;;;;;;;;4.15;86.86;98876.56;5074722;28;19935;-71
2022/11/21 02:53:54;;;;;;;;;;;;;;;4.14;87.25;98871.50;5074962;28;19924;-71
2022/11/21 02:56:24;;;;;;;;;;;;;;;4.11;87.41;98861.38;5074940;28;20382;-72
2022/11/21 02:58:53;;;;;;;;;;;;;;;4.07;87.17;98851.25;5074756;28;20401;-70
2022/11/21 03:01:21;;;;;;;;;;;;;;;4.03;87.22;98852.03;5074282;28;19925;-71
2022/11/21 03:03:50;;;;;;;;;;;;;;;4.03;87.19;98847.00;5074211;28;20428;-71
2022/11/21 03:06:18;;;;;;;;;;;;;;;4.02;87.43;98847.84;5074834;28;19924;-72
2022/11/21 03:08:47;;;;;;;;;;;;;;;3.96;87.10;98842.69;5074278;28;19924;-72
2022/11/21 03:11:15;;;;;;;;;;;;;;;3.93;87.47;98842.69;5074370;28;19924;-72
2022/11/21 03:13:45;;;;;;;;;;;;;;;3.94;87.00;98843.50;5074302;28;19990;-71
2022/11/21 03:16:13;;;;;;;;;;;;;;;3.96;87.35;98852.78;5074300;28;19924;-72
2022/11/21 03:18:42;;;;;;;;;;;;;;;4.01;87.44;98856.22;5074552;28;19925;-72
2022/11/21 03:21:10;;;;;;;;;;;;;;;4.06;87.35;98856.28;5074264;28;19955;-72
2022/11/21 03:23:39;;;;;;;;;;;;;;;4.06;87.29;98859.66;5074139;28;19924;-72
2022/11/21 03:26:07;;;;;;;;;;;;;;;4.03;87.49;98856.25;5074434;28;19925;-72
2022/11/21 03:28:35;;;;;;;;;;;;;;;4.01;87.44;98860.41;5074105;28;19924;-71
2022/11/21 03:31:05;;;;;;;;;;;;;;;4.01;87.29;98861.28;5074721;28;20340;-72
2022/11/21 03:33:33;;;;;;;;;;;;;;;4.04;87.37;98851.22;5074388;28;20070;-71
2022/11/21 03:36:02;;;;;;;;;;;;;;;4.04;87.37;98853.75;5074053;28;20007;-72
2022/11/21 03:38:30;;;;;;;;;;;;;;;4.04;86.97;98848.69;5073956;28;19967;-72
2022/11/21 03:41:03;;;;;;;;;;;;;;;4.05;87.37;98834.41;5074310;28;19925;-72
2022/11/21 03:43:31;;;;;;;;;;;;;;;4.05;87.56;98832.69;5074232;28;20333;-71
2022/11/21 03:46:00;;;;;;;;;;;;;;;4.05;87.23;98825.13;5073906;28;19924;-71
2022/11/21 03:48:30;;;;;;;;;;;;;;;4.04;87.43;98820.06;5074009;28;20386;-71
2022/11/21 03:50:59;;;;;;;;;;;;;;;4.05;87.51;98826.84;5074167;28;19924;-71
2022/11/21 03:53:27;;;;;;;;;;;;;;;4.02;87.58;98831.84;5074146;28;20402;-70
2022/11/21 03:55:56;;;;;;;;;;;;;;;3.99;87.63;98822.56;5073858;28;19994;-71
2022/11/21 03:58:25;;;;;;;;;;;;;;;4.00;87.58;98829.31;5074186;28;19931;-70
2022/11/21 04:00:53;;;;;;;;;;;;;;;4.03;87.59;98826.78;5074130;28;19924;-71
2022/11/21 04:03:21;;;;;;;;;;;;;;;4.06;87.23;98834.41;5055748;28;19978;-71
2022/11/21 04:05:52;;;;;;;;;;;;;;;4.06;87.46;98839.47;5073649;28;20345;-71
2022/11/21 04:08:20;;;;;;;;;;;;;;;4.10;87.59;98835.31;5073747;28;19932;-71
2022/11/21 04:10:48;;;;;;;;;;;;;;;4.11;87.79;98831.94;5073652;28;19931;-71
2022/11/21 04:13:17;;;;;;;;;;;;;;;4.13;87.69;98821.88;5074463;28;19931;-71
2022/11/21 04:15:46;;;;;;;;;;;;;;;4.11;87.70;98810.88;5077937;28;19924;-70
2022/11/21 04:18:15;;;;;;;;;;;;;;;4.10;87.89;98801.63;5077684;28;19924;-71
2022/11/21 04:20:45;;;;;;;;;;;;;;;4.07;87.77;98800.78;5077926;28;20442;-71
2022/11/21 04:23:15;;;;;;;;;;;;;;;4.08;88.00;98802.44;5077642;28;20418;-71
2022/11/21 04:25:43;;;;;;;;;;;;;;;4.13;87.70;98804.19;5077562;28;20419;-71
2022/11/21 04:28:12;;;;;;;;;;;;;;;4.15;87.79;98812.63;5077518;28;19925;-70
2022/11/21 04:30:41;;;;;;;;;;;;;;;4.19;88.05;98814.34;5077297;28;19931;-70
2022/11/21 04:33:09;;;;;;;;;;;;;;;4.19;87.70;98815.19;5077745;28;19931;-71
2022/11/21 04:35:38;;;;;;;;;;;;;;;4.22;88.30;98817.78;5077305;28;19928;-71
2022/11/21 04:38:06;;;;;;;;;;;;;;;4.25;87.74;98814.44;5077156;28;19925;-71
2022/11/21 04:40:36;;;;;;;;;;;;;;;4.26;88.15;98811.06;5077809;28;19930;-71
2022/11/21 04:43:05;;;;;;;;;;;;;;;4.28;88.11;98810.25;5076289;28;19925;-71
2022/11/21 04:45:33;;;;;;;;;;;;;;;4.27;88.00;98812.75;5077386;28;20348;-70
2022/11/21 04:48:02;;;;;;;;;;;;;;;4.27;88.18;98806.00;5077098;28;19924;-70
2022/11/21 04:50:31;;;;;;;;;;;;;;;4.29;87.69;98803.50;5076995;28;20012;-71
2022/11/21 04:52:59;;;;;;;;;;;;;;;4.26;88.27;98806.00;5077058;28;20370;-70
2022/11/21 04:55:29;;;;;;;;;;;;;;;4.27;88.08;98805.19;5076845;28;20499;-71
2022/11/21 04:57:59;;;;;;;;;;;;;;;4.26;88.17;98796.75;5077244;28;20397;-70
2022/11/21 05:00:28;;;;;;;;;;;;;;;4.26;88.05;98800.94;5077727;28;19977;-71
2022/11/21 05:03:01;;;;;;;;;;;;;;;4.16;87.88;98800.00;5077139;28;20271;-70
2022/11/21 05:05:30;;;;;;;;;;;;;;;4.15;88.24;98797.47;5076830;28;19925;-71
2022/11/21 05:07:58;;;;;;;;;;;;;;;4.19;87.92;98810.16;5076638;28;20390;-70
2022/11/21 05:10:27;;;;;;;;;;;;;;;4.20;87.90;98805.97;5076609;28;19978;-70
2022/11/21 05:15:38;;;;;;;;;;;;;;;4.24;87.70;98802.63;5076631;28;20011;-70
2022/11/21 05:18:07;;;;;;;;;;;;;;;4.23;87.47;98801.75;5076815;28;19959;-70
2022/11/21 05:20:35;;;;;;;;;;;;;;;4.23;87.61;98805.97;5075626;28;20455;-70
2022/11/21 05:23:04;;;;;;;;;;;;;;;4.21;87.94;98805.09;5075095;28;20394;-70
2022/11/21 05:25:32;;;;;;;;;;;;;;;4.23;87.90;98805.97;5075337;28;19924;-70
2022/11/21 05:28:02;;;;;;;;;;;;;;;4.24;87.79;98805.16;5076339;28;19931;-70
2022/11/21 05:30:31;;;;;;;;;;;;;;;4.25;87.39;98807.66;5076279;28;19951;-71
2022/11/21 05:32:59;;;;;;;;;;;;;;;4.27;87.85;98807.72;5076289;28;19924;-71
2022/11/21 05:35:28;;;;;;;;;;;;;;;4.26;87.80;98790.84;5058200;28;20295;-72
2022/11/21 05:37:57;;;;;;;;;;;;;;;4.25;87.31;98789.19;5075807;28;20425;-71
2022/11/21 05:40:25;;;;;;;;;;;;;;;4.25;87.39;98779.06;5076128;28;19931;-71
2022/11/21 05:45:32;;;;;;;;;;;;;;;4.22;87.33;98779.03;5076112;28;19925;-71
2022/11/21 05:48:01;;;;;;;;;;;;;;;4.18;86.91;98779.81;5075928;28;19928;-72
2022/11/21 05:50:29;;;;;;;;;;;;;;;4.01;87.49;98790.59;5074861;28;20282;-71
2022/11/21 05:53:01;;;;;;;;;;;;;;;3.93;87.76;98792.22;5075834;28;19974;-71
2022/11/21 05:55:29;;;;;;;;;;;;;;;3.91;87.57;98788.78;5075816;28;20370;-71
2022/11/21 05:57:58;;;;;;;;;;;;;;;3.89;87.37;98790.47;5075701;28;19978;-71
2022/11/21 06:00:27;;;;;;;;;;;;;;;3.82;87.78;98788.69;5075612;28;19925;-71
2022/11/21 06:05:35;;;;;;;;;;;;;;;3.86;87.56;98777.81;5075701;28;20409;-71
2022/11/21 06:08:03;;;;;;;;;;;;;;;3.84;87.89;98766.84;5076203;28;20371;-71
2022/11/21 06:10:32;;;;;;;;;;;;;;;3.83;87.95;98774.41;5075446;28;20394;-72
2022/11/21 06:13:00;;;;;;;;;;;;;;;3.85;87.80;98776.13;5074562;28;19931;-72
2022/11/21 06:15:29;;;;;;;;;;;;;;;3.88;87.76;98781.22;5075732;28;19928;-72
2022/11/21 06:18:01;;;;;;;;;;;;;;;3.88;87.78;98788.78;5074542;28;19925;-72
2022/11/21 06:20:30;;;;;;;;;;;;;;;3.91;88.00;98782.94;5075415;28;19925;-71
2022/11/21 06:22:58;;;;;;;;;;;;;;;3.93;88.14;98788.84;5074093;28;19924;-72
2022/11/21 06:25:26;;;;;;;;;;;;;;;3.85;87.82;98788.75;5075400;28;19967;-71
2022/11/21 06:27:55;;;;;;;;;;;;;;;3.74;87.61;98800.38;5075119;28;19931;-72
2022/11/21 06:30:23;;;;;;;;;;;;;;;3.67;87.99;98802.81;5075055;28;19955;-70
2022/11/21 06:32:52;;;;;;;;;;;;;;;3.66;88.11;98801.13;5075116;28;19925;-70
2022/11/21 06:35:22;;;;;;;;;;;;;;;3.64;88.31;98807.81;5074953;28;19929;-71
2022/11/21 06:37:51;;;;;;;;;;;;;;;3.67;87.73;98811.22;5074955;28;19924;-72
2022/11/21 06:40:23;;;;;;;;;;;;;;;3.72;88.06;98812.13;5074343;28;20209;-72
2022/11/21 06:42:51;;;;;;;;;;;;;;;3.78;88.43;98817.25;5074798;28;19925;-72
2022/11/21 06:45:21;;;;;;;;;;;;;;;3.81;88.20;98822.34;5074876;28;19935;-72
2022/11/21 06:47:49;;;;;;;;;;;;;;;3.81;88.45;98821.50;5074616;28;19928;-72
2022/11/21 06:50:18;;;;;;;;;;;;;;;3.83;88.62;98824.88;5074729;28;19930;-71
2022/11/21 06:52:47;;;;;;;;;;;;;;;3.85;88.83;98828.25;5074803;28;20279;-71
2022/11/21 06:55:16;;;;;;;;;;;;;;;3.91;88.38;98829.19;5073973;28;19932;-71
2022/11/21 06:57:44;;;;;;;;;;;;;;;3.97;88.90;98834.31;5074567;28;20016;-72
2022/11/21 07:00:13;;;;;;;;;;;;;;;4.01;88.96;98820.88;5074521;28;19924;-72
2022/11/21 07:02:42;;;;;;;;;;;;;;;3.98;88.90;98828.41;5074473;28;19924;-72
2022/11/21 07:05:10;;;;;;;;;;;;;;;3.98;88.66;98830.94;5074376;28;19928;-72
2022/11/21 07:07:38;;;;;;;;;;;;;;;3.98;88.75;98836.00;5074393;28;20401;-71
2022/11/21 07:10:09;;;;;;;;;;;;;;;3.93;88.98;98847.75;5074661;28;19928;-72
2022/11/21 07:15:16;;;;;;;;;;;;;;;3.88;88.31;98839.25;5073371;28;19939;-72
2022/11/21 07:17:44;;;;;;;;;;;;;;;3.86;88.75;98845.94;5073215;28;19924;-72
2022/11/21 07:20:13;;;;;;;;;;;;;;;3.88;88.92;98841.78;5074061;28;19925;-72
2022/11/21 07:22:41;;;;;;;;;;;;;;;3.89;88.82;98837.56;5074137;28;19925;-72
2022/11/21 07:25:11;;;;;;;;;;;;;;;3.92;88.59;98840.97;5074250;28;19932;-72
2022/11/21 07:27:39;;;;;;;;;;;;;;;4.00;89.22;98830.97;5074095;28;20438;-72
2022/11/21 07:30:08;;;;;;;;;;;;;;;4.03;89.29;98829.31;5074633;28;19924;-73
2022/11/21 07:32:37;;;;;;;;;;;;;;;4.05;89.10;98824.31;5073905;28;19932;-72
2022/11/21 07:35:06;;;;;;;;;;;;;;;4.03;89.29;98824.28;5074085;28;19959;-70
2022/11/21 07:37:37;;;;;;;;;;;;;;;4.01;89.39;98825.09;5074325;28;19938;-70
2022/11/21 07:40:06;;;;;;;;;;;;;;;3.96;89.40;98826.69;5073960;28;19976;-72
2022/11/21 07:42:36;;;;;;;;;;;;;;;3.91;89.41;98821.59;5074286;28;19924;-72
2022/11/21 07:45:04;;;;;;;;;;;;;;;3.93;89.60;98819.97;5073881;28;19952;-71
2022/11/21 07:47:33;;;;;;;;;;;;;;;3.94;89.55;98819.13;5073989;28;20368;-70
2022/11/21 07:50:01;;;;;;;;;;;;;;;3.93;90.00;98821.66;5073665;28;20290;-71
2022/11/21 07:52:30;;;;;;;;;;;;;;;3.95;89.97;98810.75;5073793;28;19929;-72
2022/11/21 07:55:01;;;;;;;;;;;;;;;3.89;89.57;98803.09;5072733;28;19929;-72
2022/11/21 07:57:29;;;;;;;;;;;;;;;3.86;89.90;98808.09;5073917;28;20383;-72
2022/11/21 07:59:59;;;;;;;;;;;;;;;3.72;89.73;98796.97;5073809;28;19924;-71
2022/11/21 08:02:28;;;;;;;;;;;;;;;3.69;90.26;98801.16;5074031;28;19925;-71
2022/11/21 08:04:57;;;;;;;;;;;;;;;3.66;90.06;98801.13;5074118;28;20027;-70
2022/11/21 08:07:25;;;;;;;;;;;;;;;3.65;90.57;98800.25;5073593;28;19932;-72
2022/11/21 08:09:53;;;;;;;;;;;;;;;3.65;90.68;98801.94;5073717;28;20382;-72
2022/11/21 08:12:22;;;;;;;;;;;;;;;3.63;90.96;98796.03;5073837;28;19967;-72
2022/11/21 08:14:51;;;;;;;;;;;;;;;3.61;90.72;98795.16;5073607;28;19928;-72
2022/11/21 08:17:20;;;;;;;;;;;;;;;3.70;90.79;98802.84;5073671;28;19924;-70
2022/11/21 08:19:49;;;;;;;;;;;;;;;3.73;90.88;98807.94;5073565;28;19924;-71
2022/11/21 08:22:17;;;;;;;;;;;;;;;3.79;91.04;98808.84;5073594;28;19924;-72
2022/11/21 08:24:46;;;;;;;;;;;;;;;3.87;91.61;98817.38;5073416;28;19959;-72
2022/11/21 08:27:19;;;;;;;;;;;;;;;3.87;91.84;98807.28;5073393;28;19924;-72
2022/11/21 08:29:48;;;;;;;;;;;;;;;3.90;91.78;98802.25;5056375;28;20331;-72
2022/11/21 08:32:16;;;;;;;;;;;;;;;3.91;91.49;98801.41;5073368;28;19924;-71
2022/11/21 08:34:46;;;;;;;;;;;;;;;3.92;91.79;98815.75;5073452;28;19947;-72
2022/11/21 08:37:15;;;;;;;;;;;;;;;3.93;91.89;98806.50;5073423;28;19931;-72
2022/11/21 08:39:43;;;;;;;;;;;;;;;3.91;91.98;98803.13;5073290;28;19925;-72
2022/11/21 08:42:11;;;;;;;;;;;;;;;3.91;91.96;98803.13;5073330;28;19929;-71
2022/11/21 08:44:40;;;;;;;;;;;;;;;3.89;92.07;98798.03;5073703;28;19925;-71
2022/11/21 08:47:08;;;;;;;;;;;;;;;3.90;92.10;98796.38;5073619;28;20031;-71
2022/11/21 08:49:36;;;;;;;;;;;;;;;3.97;92.36;98809.06;5073789;28;19932;-72
2022/11/21 08:52:06;;;;;;;;;;;;;;;4.03;92.41;98803.25;5073227;28;19939;-72
2022/11/21 08:54:34;;;;;;;;;;;;;;;4.05;92.00;98806.63;5073511;28;20014;-71
2022/11/21 08:57:03;;;;;;;;;;;;;;;4.06;92.58;98804.13;5073221;28;19925;-71
2022/11/21 08:59:31;;;;;;;;;;;;;;;4.15;92.45;98817.69;5074298;28;19928;-71
2022/11/21 09:01:59;;;;;;;;;;;;;;;4.18;92.09;98807.59;5076348;28;19924;-72
2022/11/21 09:04:28;;;;;;;;;;;;;;;4.24;92.54;98812.72;5074573;28;20011;-71
2022/11/21 09:06:57;;;;;;;;;;;;;;;4.26;92.42;98816.09;5076927;28;20374;-71
2022/11/21 09:09:27;;;;;;;;;;;;;;;4.31;92.44;98809.41;5076310;28;19924;-71
2022/11/21 09:11:55;;;;;;;;;;;;;;;4.34;92.43;98812.84;5076859;28;20298;-71
2022/11/21 09:19:39;;;;;;;;;;;;;;;4.51;92.06;98807.94;5076543;28;19924;-72
2022/11/21 09:22:07;;;;;;;;;;;;;;;4.51;92.27;98808.75;5076284;28;19925;-71
2022/11/21 09:24:37;;;;;;;;;;;;;;;4.52;91.77;98799.50;5076340;28;19936;-71
2022/11/21 09:27:06;;;;;;;;;;;;;;;4.56;92.22;98801.22;5076451;28;19999;-71
2022/11/21 09:29:35;;;;;;;;;;;;;;;4.67;91.80;98800.50;5074977;28;20010;-71
2022/11/21 09:32:03;;;;;;;;;;;;;;;4.79;92.02;98789.66;5076204;28;19924;-71
2022/11/21 09:34:32;;;;;;;;;;;;;;;4.93;91.79;98797.31;5076471;28;20404;-71
2022/11/21 09:37:00;;;;;;;;;;;;;;;4.96;91.38;98799.88;5076554;28;19974;-71
2022/11/21 09:39:28;;;;;;;;;;;;;;;4.97;91.66;98787.25;5075888;28;19931;-71
2022/11/21 09:42:07;;;;;;;;;;;;;;;5.04;91.37;98785.63;5076076;28;19925;-72
2022/11/21 09:44:44;;;;;;;;;;;;;;;5.11;91.34;98780.59;5076092;28;20010;-71
2022/11/21 09:47:21;;;;;;;;;;;;;;;5.14;90.95;98778.09;5084215;28;20367;-71
2022/11/21 09:49:52;;;;;;;;;;;;;;;5.09;90.94;98784.78;5096133;28;19932;-71
2022/11/21 09:52:22;;;;;;;;;;;;;;;5.19;90.69;98789.06;5095949;28;19940;-71
2022/11/21 09:54:53;;;;;;;;;;;;;;;5.21;90.56;98784.88;5095815;28;19970;-71
2022/11/21 09:57:24;;;;;;;;;;;;;;;5.20;90.29;98782.34;5096069;28;20011;-71
2022/11/21 09:59:59;;;;;;;;;;;;;;;5.25;90.19;98785.75;5091511;28;19977;-71
2022/11/21 10:02:27;;;;;;;;;;;;;;;5.27;89.92;98795.03;5094579;28;19939;-71
2022/11/21 10:04:59;;;;;;;;;;;;;;;5.21;89.54;98789.94;5092638;28;19924;-71
2022/11/21 10:07:30;;;;;;;;;;;;;;;5.19;89.46;98783.16;5083755;28;19924;-72
2022/11/21 10:10:16;;;;;;;;;;;;;;;5.20;89.41;98778.13;5075367;28;20333;-71
2022/11/21 10:12:51;;;;;;;;;;;;;;;5.24;89.37;98769.72;5074897;28;19924;-72
2022/11/21 10:15:26;;;;;;;;;;;;;;;5.28;89.20;98781.53;5075870;28;19925;-71
2022/11/21 10:18:08;;;;;;;;;;;;;;;5.31;89.08;98776.50;5075701;28;19928;-71
2022/11/21 10:20:49;;;;;;;;;;;;;;;5.29;88.51;98777.34;5089972;28;20267;-71
2022/11/21 10:23:30;;;;;;;;;;;;;;;5.31;88.43;98771.44;5095621;28;19930;-71
2022/11/21 10:26:08;;;;;;;;;;;;;;;5.33;88.63;98764.72;5095520;28;19924;-71
2022/11/21 10:28:42;;;;;;;;;;;;;;;5.38;88.40;98758.00;5095530;28;19931;-71
2022/11/21 10:31:11;;;;;;;;;;;;;;;5.43;88.28;98761.38;5095466;28;19932;-71
2022/11/21 10:33:40;;;;;;;;;;;;;;;5.49;88.41;98755.53;5095188;28;19969;-72
2022/11/21 10:36:14;;;;;;;;;;;;;;;5.55;88.24;98744.56;5095668;28;20026;-72
2022/11/21 10:38:44;;;;;;;;;;;;;;;5.57;88.32;98753.00;5095050;28;19924;-71
2022/11/21 10:41:15;;;;;;;;;;;;;;;5.61;87.76;98747.13;5095525;28;19924;-71
2022/11/21 10:46:28;;;;;;;;;;;;;;;5.68;87.22;98746.31;5075133;28;19925;-71
2022/11/21 10:48:59;;;;;;;;;;;;;;;5.78;87.62;98745.50;5075966;28;19924;-71
2022/11/21 10:51:42;;;;;;;;;;;;;;;5.83;87.43;98738.78;5074675;28;19932;-71
2022/11/21 10:56:52;;;;;;;;;;;;;;;6.02;87.29;98738.00;5080089;28;19970;-72
2022/11/21 10:59:25;;;;;;;;;;;;;;;6.12;86.44;98747.28;5095098;28;20390;-71
2022/11/21 11:01:59;;;;;;;;;;;;;;;6.16;86.06;98745.63;5094883;28;19950;-70
2022/11/21 11:04:28;;;;;;;;;;;;;;;6.11;86.18;98743.09;5095295;28;19971;-71
2022/11/21 11:07:19;;;;;;;;;;;;;;;6.07;85.74;98741.38;5094795;28;19932;-71
2022/11/21 11:09:49;;;;;;;;;;;;;;;6.05;85.23;98740.53;5088181;28;19977;-72
2022/11/21 11:12:23;;;;;;;;;;;;;;;6.00;84.94;98734.59;5075904;28;19924;-72
2022/11/21 11:14:55;;;;;;;;;;;;;;;5.90;84.23;98728.66;5074316;28;19928;-71
2022/11/21 11:17:28;;;;;;;;;;;;;;;5.78;84.32;98738.72;5074245;28;19924;-71
2022/11/21 11:20:01;;;;;;;;;;;;;;;5.68;84.30;98731.13;5075413;28;19925;-72
2022/11/21 11:22:30;;;;;;;;;;;;;;;5.66;84.59;98742.94;5091202;28;19947;-71
2022/11/21 11:24:58;;;;;;;;;;;;;;;5.69;83.71;98742.91;5093997;28;19930;-71
2022/11/21 11:27:28;;;;;;;;;;;;;;;5.69;84.27;98738.72;5094312;28;19990;-71
2022/11/21 11:30:05;;;;;;;;;;;;;;;5.72;83.87;98728.59;5094251;28;19931;-72
2022/11/21 11:32:39;;;;;;;;;;;;;;;5.74;83.77;98734.50;5093998;28;20351;-71
2022/11/21 11:35:14;;;;;;;;;;;;;;;5.77;83.80;98726.06;5091314;28;19978;-73
2022/11/21 11:37:48;;;;;;;;;;;;;;;5.81;83.54;98722.72;5089163;28;19935;-72
2022/11/21 11:40:21;;;;;;;;;;;;;;;5.88;84.19;98719.38;5094498;28;19924;-71
2022/11/21 11:48:27;;;;;;;;;;;;;;;5.90;84.15;98732.91;5094422;28;19947;-71
2022/11/21 11:51:00;;;;;;;;;;;;;;;5.83;83.93;98731.19;5094771;28;19924;-71
2022/11/21 11:53:33;;;;;;;;;;;;;;;5.78;83.49;98728.59;5094368;28;19924;-71
2022/11/21 11:56:03;;;;;;;;;;;;;;;5.76;84.15;98729.47;5094127;28;20391;-71
2022/11/21 11:58:37;;;;;;;;;;;;;;;5.78;84.20;98722.72;5094098;28;19924;-71
2022/11/21 12:01:11;;;;;;;;;;;;;;;5.73;84.25;98730.31;5094321;28;19971;-71
2022/11/21 12:03:43;;;;;;;;;;;;;;;5.76;84.08;98726.94;5094040;28;20377;-71
2022/11/21 12:06:16;;;;;;;;;;;;;;;5.83;84.11;98721.88;5092834;28;20010;-72
2022/11/21 12:08:48;;;;;;;;;;;;;;;5.90;84.25;98715.19;5075127;28;19971;-71
2022/11/21 12:14:05;;;;;;;;;;;;;;;6.07;84.16;98700.84;5092396;28;19924;-71
2022/11/21 12:16:35;;;;;;;;;;;;;;;6.45;84.11;98704.28;5091562;28;19924;-71
2022/11/21 12:19:08;;;;;;;;;;;;;;;7.21;84.19;98712.59;5083680;28;19928;-70
2022/11/21 12:21:36;;;;;;;;;;;;;;;7.87;82.88;98698.72;5073559;28;19974;-71
2022/11/21 12:24:05;;;;;;;;;;;;;;;8.07;81.59;98702.00;5073764;28;19925;-70
2022/11/21 12:26:45;;;;;;;;;;;;;;;8.26;80.65;98699.31;5082407;28;19939;-72
2022/11/21 12:29:19;;;;;;;;;;;;;;;8.46;79.71;98692.44;5090236;28;19929;-71
2022/11/21 12:31:58;;;;;;;;;;;;;;;8.39;78.56;98689.09;5055856;28;19970;-71
2022/11/21 12:34:35;;;;;;;;;;;;;;;8.06;77.74;98676.63;5074377;28;20057;-71
2022/11/21 12:37:09;;;;;;;;;;;;;;;7.82;77.22;98680.13;5088284;28;19924;-71
2022/11/21 12:39:52;;;;;;;;;;;;;;;7.58;77.89;98675.22;5042790;28;19989;-71
2022/11/21 12:45:11;;;;;;;;;;;;;;;7.08;77.76;98689.81;5077201;28;19924;-70
2022/11/21 12:56:05;;;;;;;;;;;;;;;6.47;79.32;98704.25;5097197;28;19924;-71
2022/11/21 12:58:37;;;;;;;;;;;;;;;6.38;79.85;98706.81;5095968;28;19924;-70
2022/11/21 13:01:16;;;;;;;;;;;;;;;6.32;79.76;98707.63;5097442;28;20041;-70
2022/11/21 13:03:52;;;;;;;;;;;;;;;6.27;80.13;98704.25;5091995;28;19930;-71
2022/11/21 13:06:23;;;;;;;;;;;;;;;6.20;80.42;98712.69;5084726;28;20436;-70
2022/11/21 13:08:53;;;;;;;;;;;;;;;6.14;80.44;98707.63;5088836;28;19924;-73
2022/11/21 13:14:09;;;;;;;;;;;;;;;6.07;81.48;98705.91;5076563;28;19932;-72
2022/11/21 13:16:43;;;;;;;;;;;;;;;6.12;81.55;98709.28;5076621;28;19924;-71
2022/11/21 13:19:19;;;;;;;;;;;;;;;6.12;81.48;98709.28;5076147;28;19929;-74
2022/11/21 13:21:50;;;;;;;;;;;;;;;6.16;81.60;98705.94;5083207;28;20003;-72
2022/11/21 13:24:29;;;;;;;;;;;;;;;6.11;81.83;98710.16;5096725;28;20019;-71
2022/11/21 13:26:57;;;;;;;;;;;;;;;6.11;81.48;98715.22;5097024;28;20336;-71
2022/11/21 13:29:26;;;;;;;;;;;;;;;6.13;81.68;98712.69;5075602;28;19924;-71
2022/11/21 13:31:55;;;;;;;;;;;;;;;6.14;81.67;98717.75;5076266;28;19925;-71
2022/11/21 13:34:34;;;;;;;;;;;;;;;6.14;81.89;98712.69;5079217;28;19932;-72
2022/11/21 13:37:05;;;;;;;;;;;;;;;6.17;81.87;98722.81;5079632;28;19932;-71
2022/11/21 13:39:37;;;;;;;;;;;;;;;6.16;81.98;98720.28;5085297;28;20007;-71
2022/11/21 13:44:49;;;;;;;;;;;;;;;6.07;81.76;98708.44;5077226;28;19924;-73
2022/11/21 13:47:28;;;;;;;;;;;;;;;6.04;81.44;98708.47;5079331;28;19925;-71
2022/11/21 13:50:01;;;;;;;;;;;;;;;5.95;81.35;98718.59;5079238;28;19924;-71
2022/11/21 13:52:35;;;;;;;;;;;;;;;5.89;82.23;98705.88;5080352;28;19932;-71
2022/11/21 13:55:15;;;;;;;;;;;;;;;5.86;82.04;98716.00;5075807;28;20263;-72
2022/11/21 13:57:49;;;;;;;;;;;;;;;5.79;82.51;98709.19;5084858;28;19931;-71
2022/11/21 14:00:30;;;;;;;;;;;;;;;5.75;82.15;98707.53;5082802;28;20445;-71